AirNav   Phillips 66 Aviation Fuel
 
 1642 users online  

43K Marion Municipal Airport
Marion, Kansas, USA


FAA INFORMATION EFFECTIVE 20 JULY 2017

Location

FAA Identifier: 43K
Lat/Long: 38-20-15.4000N / 096-59-17.7000W
38-20.256667N / 096-59.295000W
38.3376111 / -96.9882500
(estimated)
Elevation: 1390 ft. / 424 m (estimated)
Variation: 07E (1985)
From city: 2 miles SE of MARION, KS
Time zone: UTC -5 (UTC -6 during Standard Time)
Zip code: 66861

Airport Operations

Airport use: Open to the public
Activation date: 12/1945
Control tower: no
ARTCC: KANSAS CITY CENTER
FSS: WICHITA FLIGHT SERVICE STATION
NOTAMs facility: ICT (NOTAM-D service available)
Attendance: UNATNDD
PHONE AVBL 24 HRS.
Wind indicator: yes
Segmented circle: no
Beacon: white-green (lighted land airport)
Operates sunset to sunrise.

Airport Communications

CTAF: 122.9

Nearby radio navigation aids

VOR radial/distance  VOR name  Freq  Var
FRIr183/(38.4)FORT RILEY VOR109.4006E

 
NDB name  Hdg/Dist  Freq  Var  ID
NEWTON033/21.228106EEWK . .-- -.-
HERINGTON195/22.940706EHRU .... .-. ..-

Airport Services

Fuel available: 100LL MOGAS
Parking: hangars and tiedowns
Airframe service: NONE
Powerplant service: NONE
Bottled oxygen: NONE
Bulk oxygen: NONE

Runway Information

Runway 17/35

Dimensions: 2573 x 40 ft. / 784 x 12 m
Surface: asphalt, in good condition
Runway edge lights: low intensity
Runway edge markings: RWY 35 ALIGNMENT NUMBERS FADED.
RUNWAY 17  RUNWAY 35
Latitude: 38-20.455545N38-20.031528N
Longitude: 096-59.227317W096-59.227317W
Elevation: 1382.0 ft.1378.0 ft.
Traffic pattern: leftleft
Runway heading: 173 magnetic, 180 true353 magnetic, 000 true
Markings: numbers only, in good conditionnumbers only, in good condition

Runway 3/21

Dimensions: 2745 x 95 ft. / 837 x 29 m
Surface: turf, in good condition
RY 03/21 IS SLIGHTLY ROUGH.
Runway edge markings: 03/21 THLDS & EDGES MKD WITH YELLOW PAINTED TIRES.
RUNWAY 3  RUNWAY 21
Traffic pattern: leftleft
Obstructions: 4 ft. fence
THE PROXIMITY OF THE FENCE TO THE RWY ESTABLISHES THE CONTROLLING OBSTRUCTION. THE 35' TO 40' TREES DIRECTLY BEHIND WOULD BE MORE OF A CONCERN FOR APPROACHING AIRCRAFT.
22 ft. pline, 735 ft. from runway, 170 ft. left of centerline, 33:1 slope to clear

Runway 13/31

Dimensions: 2722 x 50 ft. / 830 x 15 m
Surface: turf, in good condition
Runway edge markings: 13/31 THLD & EDGES MKD WITH YELLOW PAINTED TIRES.
RUNWAY 13  RUNWAY 31
Traffic pattern: leftleft
Obstructions: 14 ft. treesnone

Runway 18/36

Dimensions: 2310 x 67 ft. / 704 x 20 m
Surface: turf, in good condition
Runway edge markings: RY 18/36 THLD DELINEATED WITH YELLOW PAINTED TIRES.
RUNWAY 18  RUNWAY 36
Latitude: 38-20.459450N38-20.079648N
Longitude: 096-59.352258W096-59.385003W
Elevation: 1380.0 ft.1378.0 ft.
Traffic pattern: leftleft
Runway heading: 177 magnetic, 184 true357 magnetic, 004 true
Obstructions: 4 ft. fence, 9 ft. from runway, 30 ft. left and right of centerline, 2:1 slope to clearnone

Airport Ownership and Management from official FAA records

Ownership: Publicly-owned
Owner: CITY OF MARION
208 EAST SANTA FE
MARION, KS 66861
Phone 620-382-3703
Manager: DOUG KJELLIN
208 EAST SANTA FE
MARION, KS 66861
Phone 620-382-3703
MR.MAYFIELD IS CITY MGR. OF MARION KS.

Airport Operational Statistics

Aircraft based on the field: 17
Single engine airplanes: 16
Ultralights: 1
    
Aircraft operations: avg 25/day *
66% local general aviation
33% transient general aviation
<1% military
* for 12-month period ending 29 September 2016

Additional Remarks

A58-35 RWY 35 ROAD ABANDONED & IS GATED FM TRAFFIC. +4 FT FENCE; 70 FT FRM END OF RWY; BOTH SIDES OF RWY.
A58-17 +4' FENCE 5' FROM RWY END 30' L & R OF CNTRLEN; LOWERED AT RWY.

Instrument Procedures

There are no published instrument procedures at 43K.

Some nearby airports with instrument procedures:

KEWK - Newton City/County Airport (22 nm SW)
KHRU - Herington Regional Airport (23 nm N)
47K - Moundridge Municipal Airport (25 nm W)
KMPR - Mc Pherson Airport (33 nm W)
1K1 - Lloyd Stearman Field Airport (34 nm S)
 
Loc | Ops | Rwys | IFR | FBO | Links
Com | Nav | Svcs | Stats | Notes

Kansas City Aviation Department
 
Area around 43K (Marion Municipal Airport)
 
Road maps at: MapQuest Bing Google
 
Aerial photo
WARNING: Photo may not be current or correct
Aerial photo of 43K (Marion Municipal Airport)
Photo by Paul Hodson
Photo taken 21-Jan-2006
taken from a C182 from the northwest

Do you have a better or more recent aerial photo of Marion Municipal Airport that you would like to share? If so, please send us your photo.

 
Sectional chart

 
Airport distance calculator
Flying to Marion Municipal Airport? Find the distance to fly.

From to 43K

Sunrise and sunset
Times for 25-Jul-2017
 Local
(UTC-5)
 Zulu
(UTC)
Morning civil twilight05:5510:55
Sunrise06:2511:25
Sunset20:4401:44
Evening civil twilight21:1402:14

Current date and time
Zulu (UTC)  25-Jul-2017 18:26:29
Local (UTC-5)  25-Jul-2017 13:26:29
 
METAR
KEWK 
22nm SW 
251756Z AUTO 18013KT 10SM CLR 33/22 A3006 RMK AO2 SLP159 T03280217 10333 20222 58008
K1K1 
34nm S 
251815Z AUTO 18008G21KT 10SM CLR A3004 RMK AO2
KEQA 
35nm S 
251815Z AUTO 16010G14KT 10SM CLR 34/21 A3004 RMK AO2
KAAO 
37nm S 
251754Z AUTO 18012G17KT 10SM CLR 34/20 A3004 RMK AO2 SLP155 T03390200 10339 20233 58011
KEMP 
37nm E 
251753Z AUTO 19011G19KT 10SM CLR 33/22 A3006 RMK AO2 SLP165 T03330217 10333 20217 56006
KBEC 
40nm S 
251815Z AUTO 19008G17KT 10SM CLR 34/20 A3003 RMK AO2 T03390195
K3AU 
40nm S 
251755Z AUTO 17014G18KT 10SM CLR 33/21 A3004 RMK AO2
KSLN 
41nm NW 
251753Z 17016G23KT 10SM CLR 36/19 A3001 RMK AO2 SLP144 T03610189 10367 20233 58010
KFRI 
43nm N 
251758Z AUTO 20010KT 10SM CLR 35/21 A3001 RMK AO2 SLP148 T03480208 10348 20238 57008
KHUT 
44nm W 
251752Z 16013G17KT 10SM CLR 35/19 A3002 RMK AO2 SLP138 T03500189 10350 20217 58013 $
TAF
KSLN 
41nm NW 
251120Z 2512/2612 17010KT P6SM FEW250 FM251700 18014G20KT P6SM FEW080
KFRI 
43nm N 
251600Z 2516/2622 18012G18KT 9999 SKC QNH2991INS BECMG 2600/2601 16012KT 9999 FEW090 QNH2992INS BECMG 2615/2616 18015G20KT 9999 FEW090 SCT110 QNH2990INS BECMG 2617/2618 18020G25KT 9000 -SHRA SCT090 BKN110 QNH2985INS TX37/2521Z TN26/2612Z
KHUT 
44nm W 
251120Z 2512/2612 17009KT P6SM FEW250 FM251800 18014G20KT P6SM FEW080
KIAB 
45nm S 
251000Z 2510/2616 18009KT 9999 SKC QNH2997INS BECMG 2515/2516 18012G18KT 9999 SKC QNH2994INS BECMG 2523/2524 15012KT 9999 SKC QNH2995INS BECMG 2605/2606 15012KT 9999 SKC 520103 QNH2995INS BECMG 2615/2616 18015G25KT 9999 SCT100 QNH2992INS TX37/2521Z TN22/2512Z
KICT 
46nm SW 
251120Z 2512/2612 17008KT P6SM FEW250 FM251800 18013KT P6SM FEW080
KMHK 
50nm N 
251120Z 2512/2612 18008KT P6SM FEW250
NOTAMs
Click for the latest NOTAMs
NOTAMs are issued by the DoD/FAA and will open in a separate window not controlled by AirNav.

 

 
 

Would you like to see your business listed on this page?

 If your business provides an interesting product or service to pilots, flight crews, aircraft, or users of the Marion Municipal Airport, you should consider listing it here.  To start the listing process, click on the button below
 
Add a business
 

Other Pages about Marion Municipal Airport

Update a link
 
Copyright © AirNav, LLC. All rights reserved. Privacy Policy  Contact